createdAt,value
2022-09-10T00:01:59.655Z,30.84
2022-09-10T00:04:27.979Z,30.51
2022-09-10T00:06:55.759Z,30.91
2022-09-10T00:09:23.237Z,30.96
2022-09-10T00:11:50.566Z,30.85
2022-09-10T00:14:19.427Z,31.04
2022-09-10T00:16:46.687Z,30.96
2022-09-10T00:19:14.990Z,30.89
2022-09-10T00:21:42.395Z,30.77
2022-09-10T00:24:09.823Z,30.82
2022-09-10T00:26:40.665Z,31.07
2022-09-10T00:29:09.377Z,30.85
2022-09-10T00:31:37.370Z,31.13
2022-09-10T00:34:05.809Z,31.36
2022-09-10T00:36:36.134Z,30.96
2022-09-10T00:39:05.346Z,30.98
2022-09-10T00:41:33.564Z,31.11
2022-09-10T00:44:02.594Z,31.09
2022-09-10T00:46:33.041Z,30.92
2022-09-10T00:49:02.737Z,30.84
2022-09-10T00:51:32.238Z,31.23
2022-09-10T00:54:00.481Z,31.13
2022-09-10T00:56:28.461Z,30.88
2022-09-10T00:58:56.269Z,31.23
2022-09-10T01:01:23.463Z,31.15
2022-09-10T01:03:50.889Z,31.22
2022-09-10T01:06:18.533Z,30.75
2022-09-10T01:08:45.837Z,31.10
2022-09-10T01:11:28.464Z,31.01
2022-09-10T01:14:22.171Z,30.88
2022-09-10T01:17:08.689Z,30.96
2022-09-10T01:19:54.955Z,31.14
2022-09-10T01:22:25.753Z,30.81
2022-09-10T01:24:55.841Z,31.32
2022-09-10T01:27:27.092Z,31.19
2022-09-10T01:30:03.418Z,31.01
2022-09-10T01:32:52.614Z,31.15
2022-09-10T01:35:30.358Z,31.19
2022-09-10T01:37:59.826Z,31.18
2022-09-10T01:40:30.318Z,31.38
2022-09-10T01:43:03.176Z,31.11
2022-09-10T01:45:33.133Z,31.39
2022-09-10T01:48:19.438Z,31.32
2022-09-10T01:51:00.474Z,31.15
2022-09-10T01:53:31.042Z,31.08
2022-09-10T01:56:16.850Z,31.04
2022-09-10T01:58:45.420Z,30.83
2022-09-10T02:01:32.385Z,30.97
2022-09-10T02:04:06.794Z,31.06
2022-09-10T02:06:36.429Z,31.39
2022-09-10T02:09:05.547Z,30.98
2022-09-10T02:11:43.308Z,31.14
2022-09-10T02:14:14.204Z,31.06
2022-09-10T02:17:09.868Z,31.29
2022-09-10T02:19:37.665Z,31.32
2022-09-10T02:22:05.649Z,31.21
2022-09-10T02:24:32.885Z,31.21
2022-09-10T02:27:00.754Z,31.21
2022-09-10T02:29:29.328Z,30.95
2022-09-10T02:31:56.539Z,30.98
2022-09-10T02:34:24.669Z,30.83
2022-09-10T02:36:51.958Z,31.00
2022-09-10T02:39:20.113Z,30.98
2022-09-10T02:41:48.216Z,30.98
2022-09-10T02:44:16.154Z,31.00
2022-09-10T02:46:43.557Z,31.19
2022-09-10T02:49:11.138Z,31.05
2022-09-10T02:51:39.575Z,30.93
2022-09-10T02:54:07.636Z,30.98
2022-09-10T02:56:35.405Z,30.93
2022-09-10T02:59:04.198Z,30.93
2022-09-10T03:01:32.788Z,30.91
2022-09-10T03:04:03.438Z,30.72
2022-09-10T03:06:32.072Z,30.78
2022-09-10T03:08:59.231Z,31.08
2022-09-10T03:11:27.775Z,30.99
2022-09-10T03:13:55.781Z,30.94
2022-09-10T03:16:24.436Z,30.70
2022-09-10T03:18:52.505Z,30.76
2022-09-10T03:21:21.563Z,30.83
2022-09-10T03:23:49.599Z,30.67
2022-09-10T03:26:22.729Z,30.67
2022-09-10T03:28:50.244Z,30.50
2022-09-10T03:31:20.116Z,30.46
2022-09-10T03:33:49.368Z,30.52
2022-09-10T03:36:18.282Z,30.46
2022-09-10T03:38:48.085Z,30.50
2022-09-10T03:41:15.441Z,30.70
2022-09-10T03:43:42.662Z,30.53
2022-09-10T03:46:12.244Z,30.73
2022-09-10T03:48:45.859Z,30.87
2022-09-10T03:51:13.436Z,30.90
2022-09-10T03:53:41.038Z,30.73
2022-09-10T03:56:13.000Z,31.06
2022-09-10T03:58:41.314Z,30.82
2022-09-10T04:01:10.126Z,31.00
2022-09-10T04:03:42.350Z,31.05
2022-09-10T04:06:10.856Z,31.17
2022-09-10T04:08:38.446Z,31.11
2022-09-10T04:11:08.509Z,31.19
2022-09-10T04:13:35.739Z,30.91
2022-09-10T04:16:03.253Z,30.88
2022-09-10T04:18:34.430Z,30.96
2022-09-10T04:21:03.329Z,31.07
2022-09-10T04:23:30.510Z,31.04
2022-09-10T04:25:58.439Z,30.94
2022-09-10T04:28:26.053Z,31.08
2022-09-10T04:30:54.935Z,31.04
2022-09-10T04:33:25.152Z,30.84
2022-09-10T04:35:53.420Z,30.85
2022-09-10T04:38:20.998Z,31.12
2022-09-10T04:40:49.709Z,31.16
2022-09-10T04:43:17.445Z,30.94
2022-09-10T04:45:45.277Z,30.95
2022-09-10T04:48:13.131Z,31.30
2022-09-10T04:50:54.082Z,30.95
2022-09-10T04:53:28.349Z,31.13
2022-09-10T04:55:57.460Z,30.95
2022-09-10T04:58:24.849Z,31.10
2022-09-10T05:00:52.135Z,31.42
2022-09-10T05:03:20.626Z,31.08
2022-09-10T05:05:48.734Z,30.96
2022-09-10T05:08:16.058Z,31.48
2022-09-10T05:10:50.556Z,31.25
2022-09-10T05:13:18.721Z,31.10
2022-09-10T05:15:46.184Z,31.14
2022-09-10T05:18:16.731Z,31.27
2022-09-10T05:20:45.113Z,31.13
2022-09-10T05:23:12.628Z,31.02
2022-09-10T05:25:43.704Z,30.86
2022-09-10T05:28:11.480Z,31.07
2022-09-10T05:30:38.739Z,31.18
2022-09-10T05:33:06.467Z,31.19
2022-09-10T05:35:34.838Z,31.32
2022-09-10T05:38:02.345Z,31.27
2022-09-10T05:40:32.805Z,31.12
2022-09-10T05:43:00.340Z,30.92
2022-09-10T05:45:27.676Z,31.21
2022-09-10T05:47:57.315Z,31.13
2022-09-10T05:50:24.719Z,31.01
2022-09-10T05:52:53.380Z,31.09
2022-09-10T05:55:21.082Z,31.01
2022-09-10T05:57:49.276Z,31.08
2022-09-10T06:00:19.473Z,31.13
2022-09-10T06:02:57.510Z,31.05
2022-09-10T06:05:29.399Z,31.73
2022-09-10T06:07:57.653Z,32.22
2022-09-10T06:10:25.061Z,31.93
2022-09-10T06:12:52.843Z,32.30
2022-09-10T06:15:21.399Z,32.65
2022-09-10T06:17:54.184Z,32.55
2022-09-10T06:20:21.750Z,32.70
2022-09-10T06:22:49.338Z,32.97
2022-09-10T06:25:16.986Z,32.20
2022-09-10T06:27:44.810Z,32.40
2022-09-10T06:30:12.372Z,32.24
2022-09-10T06:32:43.101Z,32.58
2022-09-10T06:35:10.635Z,32.93
2022-09-10T06:37:38.043Z,32.60
2022-09-10T06:40:08.933Z,32.30
2022-09-10T06:42:37.172Z,32.60
2022-09-10T06:45:18.332Z,32.82
2022-09-10T06:48:38.177Z,32.82
2022-09-10T06:51:12.737Z,32.60
2022-09-10T06:53:41.260Z,32.41
2022-09-10T06:56:12.501Z,32.44
2022-09-10T06:58:40.251Z,32.26
2022-09-10T07:01:13.740Z,32.51
2022-09-10T07:03:44.173Z,31.98
2022-09-10T07:06:17.541Z,32.10
2022-09-10T07:08:47.954Z,32.31
2022-09-10T07:11:15.946Z,32.48
2022-09-10T07:13:44.800Z,33.14
2022-09-10T07:16:12.409Z,33.04
2022-09-10T07:18:39.850Z,33.13
2022-09-10T07:21:10.775Z,32.51
2022-09-10T07:23:44.236Z,32.66
2022-09-10T07:26:14.305Z,32.47
2022-09-10T07:28:48.111Z,32.57
2022-09-10T07:31:18.294Z,32.73
2022-09-10T07:33:47.428Z,32.80
2022-09-10T07:36:16.324Z,33.10
2022-09-10T07:38:45.395Z,32.77
2022-09-10T07:41:14.280Z,32.44
2022-09-10T07:43:43.638Z,32.34
2022-09-10T07:46:13.459Z,32.00
2022-09-10T07:48:41.616Z,32.06
2022-09-10T07:51:11.806Z,32.30
2022-09-10T07:53:47.517Z,32.20
2022-09-10T07:56:18.360Z,32.37
2022-09-10T07:58:45.699Z,32.33
2022-09-10T08:01:13.586Z,32.10
2022-09-10T08:03:40.874Z,32.13
2022-09-10T08:06:10.347Z,31.98
2022-09-10T08:08:39.953Z,32.43
2022-09-10T08:11:12.853Z,32.70
2022-09-10T08:13:44.303Z,32.27
2022-09-10T08:16:15.245Z,32.44
2022-09-10T08:18:47.006Z,32.62
2022-09-10T08:21:16.522Z,32.69
2022-09-10T08:23:51.079Z,32.74
2022-09-10T08:26:23.792Z,32.13
2022-09-10T08:28:53.150Z,32.79
2022-09-10T08:31:22.295Z,32.80
2022-09-10T08:33:56.987Z,32.92
2022-09-10T08:36:26.270Z,32.82
2022-09-10T08:38:59.896Z,32.96
2022-09-10T08:41:38.552Z,32.67
2022-09-10T08:44:12.517Z,32.29
2022-09-10T08:46:40.069Z,32.70
2022-09-10T08:49:12.279Z,32.21
2022-09-10T08:51:46.771Z,32.63
2022-09-10T08:54:20.662Z,32.20
2022-09-10T08:56:48.587Z,32.65
2022-09-10T08:59:21.812Z,32.26
2022-09-10T09:01:52.779Z,32.01
2022-09-10T09:04:38.750Z,32.24
2022-09-10T09:07:16.046Z,32.13
2022-09-10T09:09:54.523Z,32.51
2022-09-10T09:12:32.570Z,31.56
2022-09-10T09:15:00.462Z,32.31
2022-09-10T09:17:34.242Z,32.24
2022-09-10T09:20:25.804Z,32.06
2022-09-10T09:22:55.510Z,32.47
2022-09-10T09:25:47.458Z,32.05
2022-09-10T09:28:35.578Z,31.85
2022-09-10T09:31:09.249Z,32.28
2022-09-10T09:33:38.943Z,31.67
2022-09-10T09:36:08.163Z,31.90
2022-09-10T09:38:41.445Z,31.61
2022-09-10T09:41:32.240Z,31.86
2022-09-10T09:44:16.935Z,32.20
2022-09-10T09:46:45.032Z,31.99
2022-09-10T09:49:16.798Z,32.30
2022-09-10T09:51:47.952Z,31.86
2022-09-10T09:54:56.708Z,31.84
2022-09-10T09:57:14.552Z,32.14
2022-09-10T09:59:42.122Z,31.73
2022-09-10T10:02:12.445Z,31.84
2022-09-10T10:04:42.436Z,31.78
2022-09-10T10:07:11.971Z,31.57
2022-09-10T10:09:42.897Z,31.89
2022-09-10T10:12:20.148Z,31.75
2022-09-10T10:14:47.456Z,31.72
2022-09-10T10:17:22.519Z,31.63
2022-09-10T10:19:59.060Z,31.77
2022-09-10T10:22:27.175Z,31.73
2022-09-10T10:24:54.572Z,31.45
2022-09-10T10:27:33.072Z,31.92
2022-09-10T10:30:18.615Z,31.62
2022-09-10T10:32:58.815Z,32.01
2022-09-10T10:35:32.866Z,31.53
2022-09-10T10:38:17.361Z,32.23
2022-09-10T10:40:45.211Z,31.53
2022-09-10T10:43:18.812Z,31.87
2022-09-10T10:46:01.307Z,31.71
2022-09-10T10:48:37.773Z,31.50
2022-09-10T10:51:11.828Z,31.78
2022-09-10T10:53:49.464Z,31.79
2022-09-10T10:56:36.214Z,31.70
2022-09-10T10:59:04.559Z,31.95
2022-09-10T11:01:35.253Z,31.97
2022-09-10T11:04:02.601Z,31.51
2022-09-10T11:06:35.281Z,31.30
2022-09-10T11:09:06.330Z,31.68
2022-09-10T11:11:37.221Z,31.88
2022-09-10T11:14:13.396Z,31.70
2022-09-10T11:16:49.793Z,31.81
2022-09-10T11:19:25.591Z,31.81
2022-09-10T11:21:59.826Z,31.62
2022-09-10T11:24:34.108Z,31.41
2022-09-10T11:27:11.705Z,31.61
2022-09-10T11:29:50.033Z,31.46
2022-09-10T11:32:23.411Z,31.77
2022-09-10T11:35:09.518Z,31.89
2022-09-10T11:37:51.921Z,31.92
2022-09-10T11:40:27.579Z,31.32
2022-09-10T11:42:56.835Z,31.63
2022-09-10T11:45:32.373Z,31.82
2022-09-10T11:48:06.040Z,32.15
2022-09-10T11:50:40.055Z,32.07
2022-09-10T11:53:11.921Z,31.90
2022-09-10T11:55:42.887Z,32.05
2022-09-10T11:58:20.952Z,31.62
2022-09-10T12:01:01.040Z,31.72
2022-09-10T12:03:37.380Z,31.50
2022-09-10T12:06:16.366Z,31.35
2022-09-10T12:09:02.251Z,31.59
2022-09-10T12:11:29.928Z,31.74
2022-09-10T12:13:57.774Z,31.90
2022-09-10T12:16:29.518Z,31.79
2022-09-10T12:18:58.824Z,32.06
2022-09-10T12:21:26.043Z,31.92
2022-09-10T12:23:54.389Z,32.07
2022-09-10T12:26:22.264Z,32.21
2022-09-10T12:28:49.662Z,31.81
2022-09-10T12:31:18.228Z,32.04
2022-09-10T12:33:45.419Z,31.73
2022-09-10T12:36:14.298Z,31.64
2022-09-10T12:39:00.046Z,31.59
2022-09-10T12:41:27.473Z,31.69
2022-09-10T12:43:56.086Z,31.62
2022-09-10T12:46:25.793Z,31.55
2022-09-10T12:48:56.139Z,31.56
2022-09-10T12:51:42.039Z,31.51
2022-09-10T12:54:24.740Z,31.59
2022-09-10T12:57:12.883Z,31.58
2022-09-10T12:59:58.959Z,31.54
2022-09-10T13:02:35.004Z,31.27
2022-09-10T13:05:06.300Z,31.14
2022-09-10T13:07:40.337Z,31.32
2022-09-10T13:10:08.001Z,31.36
2022-09-10T13:12:36.483Z,31.62
2022-09-10T13:15:04.979Z,31.35
2022-09-10T13:17:39.836Z,31.10
2022-09-10T13:20:22.101Z,31.72
2022-09-10T13:23:04.403Z,31.53
2022-09-10T13:25:40.202Z,31.70
2022-09-10T13:28:25.873Z,31.51
2022-09-10T13:31:19.326Z,31.32
2022-09-10T13:33:49.402Z,31.75
2022-09-10T13:36:24.741Z,31.70
2022-09-10T13:38:55.653Z,31.50
2022-09-10T13:41:43.617Z,31.50
2022-09-10T13:44:33.523Z,31.87
2022-09-10T13:47:04.340Z,31.68
2022-09-10T13:49:51.596Z,31.77
2022-09-10T13:52:21.838Z,31.70
2022-09-10T13:54:51.644Z,31.96
2022-09-10T13:57:25.973Z,31.73
2022-09-10T13:59:59.559Z,31.82
2022-09-10T14:02:47.595Z,31.98
2022-09-10T14:05:26.286Z,32.12
2022-09-10T14:07:55.476Z,32.11
2022-09-10T14:10:22.820Z,31.91
2022-09-10T14:12:50.863Z,31.92
2022-09-10T14:15:20.781Z,31.88
2022-09-10T14:17:50.787Z,32.17
2022-09-10T14:20:25.940Z,31.83
2022-09-10T14:23:16.631Z,31.68
2022-09-10T14:25:45.121Z,31.88
2022-09-10T14:28:26.050Z,32.07
2022-09-10T14:31:13.905Z,32.03
2022-09-10T14:33:41.339Z,32.08
2022-09-10T14:36:16.285Z,31.93
2022-09-10T14:38:45.905Z,31.84
2022-09-10T14:41:21.828Z,31.64
2022-09-10T14:44:09.058Z,31.79
2022-09-10T14:46:51.762Z,31.67
2022-09-10T14:49:25.680Z,31.66
2022-09-10T14:51:53.236Z,31.61
2022-09-10T14:54:20.547Z,31.76
2022-09-10T14:56:48.434Z,31.88
2022-09-10T14:59:24.426Z,31.59
2022-09-10T15:01:51.904Z,31.92
2022-09-10T15:04:23.739Z,31.77
2022-09-10T15:06:57.650Z,31.78
2022-09-10T15:09:26.096Z,31.79
2022-09-10T15:11:59.124Z,31.92
2022-09-10T15:14:26.652Z,31.77
2022-09-10T15:16:54.168Z,31.77
2022-09-10T15:19:21.959Z,31.92
2022-09-10T15:21:49.592Z,32.01
2022-09-10T15:24:18.430Z,32.19
2022-09-10T15:26:45.872Z,31.93
2022-09-10T15:29:14.449Z,32.00
2022-09-10T15:31:42.380Z,31.92
2022-09-10T15:34:10.736Z,31.81
2022-09-10T15:36:40.011Z,31.96
2022-09-10T15:39:08.280Z,31.98
2022-09-10T15:41:35.543Z,31.93
2022-09-10T15:44:03.412Z,31.82
2022-09-10T15:46:30.731Z,31.97
2022-09-10T15:48:59.535Z,32.15
2022-09-10T15:51:27.334Z,32.07
2022-09-10T15:53:54.697Z,31.98
2022-09-10T15:56:23.185Z,31.84
2022-09-10T15:58:52.015Z,31.86
2022-09-10T16:01:19.348Z,31.98
2022-09-10T16:03:51.788Z,31.93
2022-09-10T16:06:19.837Z,31.72
2022-09-10T16:08:50.834Z,31.96
2022-09-10T16:11:18.256Z,31.86
2022-09-10T16:13:45.729Z,31.81
2022-09-10T16:16:16.042Z,32.06
2022-09-10T16:18:43.844Z,31.90
2022-09-10T16:21:13.044Z,31.79
2022-09-10T16:23:41.493Z,31.64
2022-09-10T16:26:09.768Z,31.73
2022-09-10T16:28:37.591Z,31.94
2022-09-10T16:31:15.553Z,31.97
2022-09-10T16:33:43.578Z,31.65
2022-09-10T16:36:11.045Z,31.92
2022-09-10T16:38:39.228Z,31.91
2022-09-10T16:41:07.089Z,31.88
2022-09-10T16:43:38.355Z,31.91
2022-09-10T16:46:06.676Z,31.89
2022-09-10T16:48:34.455Z,31.67
2022-09-10T16:51:09.339Z,31.66
2022-09-10T16:53:36.957Z,31.90
2022-09-10T16:56:05.281Z,31.81
2022-09-10T16:58:35.951Z,31.68
2022-09-10T17:01:04.641Z,31.94
2022-09-10T17:03:31.905Z,32.02
2022-09-10T17:05:59.448Z,32.31
2022-09-10T17:08:27.576Z,32.67
2022-09-10T17:10:55.557Z,32.64
2022-09-10T17:13:22.792Z,32.69
2022-09-10T17:15:50.803Z,33.13
2022-09-10T17:18:18.011Z,32.85
2022-09-10T17:20:48.306Z,32.61
2022-09-10T17:23:18.669Z,32.84
2022-09-10T17:25:45.861Z,32.84
2022-09-10T17:28:13.132Z,32.77
2022-09-10T17:30:40.449Z,32.92
2022-09-10T17:33:07.652Z,32.75
2022-09-10T17:35:35.027Z,32.81
2022-09-10T17:38:02.206Z,32.80
2022-09-10T17:40:29.654Z,33.01
2022-09-10T17:42:56.885Z,32.98
2022-09-10T17:45:24.403Z,32.92
2022-09-10T17:47:51.732Z,32.81
2022-09-10T17:50:19.095Z,32.79
2022-09-10T17:52:46.552Z,32.73
2022-09-10T17:55:13.873Z,33.05
2022-09-10T17:57:41.154Z,33.01
2022-09-10T18:00:08.869Z,32.86
2022-09-10T18:02:36.176Z,32.77
2022-09-10T18:05:05.609Z,32.91
2022-09-10T18:07:32.929Z,32.78
2022-09-10T18:10:00.111Z,32.87
2022-09-10T18:12:27.415Z,32.97
2022-09-10T18:14:54.607Z,32.81
2022-09-10T18:17:22.531Z,32.65
2022-09-10T18:19:50.395Z,32.79
2022-09-10T18:22:17.596Z,32.62
2022-09-10T18:24:45.064Z,32.66
2022-09-10T18:27:12.494Z,32.54
2022-09-10T18:29:41.576Z,32.55
2022-09-10T18:32:09.867Z,32.64
2022-09-10T18:34:37.143Z,32.65
2022-09-10T18:37:04.667Z,32.61
2022-09-10T18:39:34.115Z,32.55
2022-09-10T18:42:01.693Z,32.61
2022-09-10T18:44:37.036Z,32.69
2022-09-10T18:47:17.677Z,32.69
2022-09-10T18:49:45.364Z,32.83
2022-09-10T18:52:13.832Z,32.87
2022-09-10T18:54:46.320Z,32.61
2022-09-10T18:57:13.956Z,33.07
2022-09-10T18:59:41.137Z,32.78
2022-09-10T19:02:10.339Z,32.65
2022-09-10T19:04:54.404Z,33.03
2022-09-10T19:07:25.245Z,32.81
2022-09-10T19:09:52.601Z,32.99
2022-09-10T19:12:19.881Z,33.09
2022-09-10T19:14:47.073Z,32.91
2022-09-10T19:17:15.889Z,32.80
2022-09-10T19:19:43.109Z,32.83
2022-09-10T19:22:13.455Z,32.77
2022-09-10T19:24:56.413Z,32.91
2022-09-10T19:27:24.409Z,32.81
2022-09-10T19:29:52.060Z,32.71
2022-09-10T19:32:22.404Z,32.73
2022-09-10T19:34:50.433Z,32.86
2022-09-10T19:37:17.696Z,32.75
2022-09-10T19:39:45.493Z,32.83
2022-09-10T19:42:13.185Z,32.75
2022-09-10T19:44:40.475Z,32.76
2022-09-10T19:47:07.850Z,32.63
2022-09-10T19:49:35.373Z,32.72
2022-09-10T19:52:04.379Z,32.56
2022-09-10T19:54:31.956Z,32.68
2022-09-10T19:56:59.132Z,32.71
2022-09-10T19:59:26.555Z,32.81
2022-09-10T20:01:53.887Z,32.67
2022-09-10T20:04:21.260Z,32.72
2022-09-10T20:06:50.439Z,32.85
2022-09-10T20:09:17.811Z,32.90
2022-09-10T20:11:45.370Z,32.65
2022-09-10T20:14:13.841Z,32.71
2022-09-10T20:16:42.930Z,32.52
2022-09-10T20:19:11.329Z,32.67
2022-09-10T20:21:38.580Z,32.50
2022-09-10T20:24:07.013Z,32.71
2022-09-10T20:26:35.610Z,32.39
2022-09-10T20:29:05.284Z,32.43
2022-09-10T20:31:34.174Z,32.64
2022-09-10T20:34:05.854Z,32.59
2022-09-10T20:36:34.437Z,32.44
2022-09-10T20:39:02.288Z,32.46
2022-09-10T20:41:30.642Z,32.65
2022-09-10T20:43:59.212Z,32.38
2022-09-10T20:46:27.990Z,32.49
2022-09-10T20:49:02.922Z,32.31
2022-09-10T20:51:31.822Z,32.40
2022-09-10T20:53:59.204Z,32.60
2022-09-10T20:56:26.503Z,32.33
2022-09-10T20:58:53.689Z,32.53
2022-09-10T21:01:22.485Z,32.12
2022-09-10T21:03:50.529Z,32.21
2022-09-10T21:06:19.710Z,32.53
2022-09-10T21:08:48.039Z,32.24
2022-09-10T21:11:16.899Z,32.29
2022-09-10T21:13:45.315Z,32.23
2022-09-10T21:16:14.135Z,31.99
2022-09-10T21:18:42.661Z,32.11
2022-09-10T21:21:11.681Z,32.22
2022-09-10T21:23:58.207Z,32.04
2022-09-10T21:26:27.013Z,32.19
2022-09-10T21:28:56.371Z,32.18
2022-09-10T21:31:24.289Z,31.98
2022-09-10T21:33:51.555Z,31.85
2022-09-10T21:36:20.344Z,31.84
2022-09-10T21:38:48.356Z,31.83
2022-09-10T21:41:16.853Z,31.85
2022-09-10T21:43:45.065Z,31.91
2022-09-10T21:46:13.670Z,31.76
2022-09-10T21:48:42.362Z,31.98
2022-09-10T21:51:14.161Z,31.81
2022-09-10T21:53:42.184Z,31.94
2022-09-10T21:56:11.283Z,31.74
2022-09-10T21:58:38.940Z,31.63
2022-09-10T22:01:13.892Z,31.60
2022-09-10T22:03:41.608Z,31.82
2022-09-10T22:06:08.806Z,31.67
2022-09-10T22:08:36.597Z,31.54
2022-09-10T22:11:08.296Z,31.68
2022-09-10T22:13:37.846Z,31.76
2022-09-10T22:16:05.912Z,31.59
2022-09-10T22:18:34.281Z,31.58
2022-09-10T22:21:02.206Z,31.61
2022-09-10T22:23:37.076Z,31.66
2022-09-10T22:26:08.840Z,31.59
2022-09-10T22:28:36.995Z,31.44
2022-09-10T22:31:14.867Z,31.47
2022-09-10T22:33:43.406Z,31.51
2022-09-10T22:36:10.736Z,31.66
2022-09-10T22:38:38.165Z,31.63
2022-09-10T22:41:05.773Z,31.36
2022-09-10T22:43:33.088Z,31.56
2022-09-10T22:46:00.369Z,31.64
2022-09-10T22:48:27.771Z,31.62
2022-09-10T22:50:55.444Z,31.32
2022-09-10T22:53:22.812Z,31.63
2022-09-10T22:55:50.980Z,31.54
2022-09-10T22:58:19.059Z,31.55
2022-09-10T23:00:46.256Z,31.37
2022-09-10T23:03:13.589Z,31.40
2022-09-10T23:05:40.901Z,31.33
2022-09-10T23:08:08.220Z,31.34
2022-09-10T23:10:35.447Z,31.36
2022-09-10T23:13:02.813Z,31.31
2022-09-10T23:15:31.035Z,31.32
2022-09-10T23:17:59.874Z,31.39
2022-09-10T23:20:27.185Z,31.32
2022-09-10T23:22:54.532Z,31.22
2022-09-10T23:25:21.841Z,31.30
2022-09-10T23:27:51.204Z,31.35
2022-09-10T23:30:18.637Z,31.33
2022-09-10T23:32:46.612Z,31.30
2022-09-10T23:35:13.827Z,31.25
2022-09-10T23:37:42.255Z,31.27
2022-09-10T23:40:12.009Z,31.25
2022-09-10T23:42:39.534Z,31.38
2022-09-10T23:45:07.198Z,31.32
2022-09-10T23:47:34.809Z,31.23
2022-09-10T23:50:02.239Z,31.11
2022-09-10T23:52:29.665Z,31.25
2022-09-10T23:54:56.953Z,31.08
2022-09-10T23:57:24.382Z,31.06
2022-09-10T23:59:51.571Z,31.09
